CYAZ/YAZ METAR and TAF weather

Enter ICAO airport designator
Station Type Date Time Source
CYAZ METAR 2020/07/04 01:00 UTC NOAA

CYAZ 040100Z 15009KT 1SM -RA BR SCT003 OVC010 12/12 A3012 RMK SF4ST4 LAST STFD OBS/NXT 041300UTC SLP202


Station Type Date Time Source
CYAZ Decoded METAR 2020/07/04 01:00 UTC NOAA

Tofino Airport, Canada (CYAZ) 49-05N 125-46W
Jul 03, 2020 - 09:00 PM EDT / 2020.07.04 0100 UTC
Wind: from the SSE (150 degrees) at 10 MPH (9 KT):0
Visibility: 1 mile(s):0
Sky conditions: overcast
Weather: light rain; mist
Temperature: 53 F (12 C)
Dew Point: 53 F (12 C)
Relative Humidity: 100%
Pressure (altimeter): 30.12 in. Hg (1019 hPa)
ob: CYAZ 040100Z 15009KT 1SM -RA BR SCT003 OVC010 12/12 A3012 RMK SF4ST4 LAST STFD OBS/NXT 041300UTC SLP202
cycle: 1

Station Type Date Time Source
CYAZ TAF 2020/07/03 19:00 UTC NOAA

TAF CYAZ 031840Z 0319/0401 14007KT 6SM -RA SCT007 OVC015
TEMPO 0319/0401 5SM -RA BR SCT005 BKN007 OVC015
RMK NXT FCST WILL BE ISSUED AT 041445Z

Example: see airport list